createdAt,value
2023-07-19T00:02:30.741Z,15.13
2023-07-19T00:05:17.592Z,15.09
2023-07-19T00:08:05.568Z,15.14
2023-07-19T00:10:52.461Z,15.14
2023-07-19T00:13:39.261Z,15.21
2023-07-19T00:16:26.247Z,15.17
2023-07-19T00:19:20.710Z,15.23
2023-07-19T00:22:10.113Z,15.12
2023-07-19T00:24:56.938Z,15.17
2023-07-19T00:27:43.631Z,15.24
2023-07-19T00:30:30.542Z,15.25
2023-07-19T00:33:17.435Z,15.19
2023-07-19T00:36:05.909Z,15.09
2023-07-19T00:38:52.926Z,14.99
2023-07-19T00:41:40.765Z,14.93
2023-07-19T00:44:27.306Z,14.91
2023-07-19T00:47:14.164Z,14.99
2023-07-19T00:50:01.058Z,14.81
2023-07-19T00:52:49.855Z,14.64
2023-07-19T00:55:36.855Z,14.55
2023-07-19T00:58:24.949Z,14.52
2023-07-19T01:01:11.817Z,14.55
2023-07-19T01:03:58.640Z,14.59
2023-07-19T01:06:45.804Z,14.57
2023-07-19T01:09:34.715Z,14.64
2023-07-19T01:12:21.724Z,14.59
2023-07-19T01:15:10.883Z,14.64
2023-07-19T01:17:57.678Z,14.60
2023-07-19T01:20:44.568Z,14.50
2023-07-19T01:23:32.908Z,14.46
2023-07-19T01:26:19.841Z,14.44
2023-07-19T01:29:06.556Z,14.41
2023-07-19T01:31:53.367Z,14.43
2023-07-19T01:34:40.203Z,14.26
2023-07-19T01:37:29.426Z,14.50
2023-07-19T01:40:18.076Z,14.47
2023-07-19T01:43:05.012Z,14.36
2023-07-19T01:45:51.837Z,14.18
2023-07-19T01:48:38.960Z,14.16
2023-07-19T01:51:26.076Z,14.20
2023-07-19T01:54:13.766Z,14.23
2023-07-19T01:57:03.957Z,14.20
2023-07-19T01:59:51.118Z,14.22
2023-07-19T02:02:37.899Z,14.22
2023-07-19T02:05:24.995Z,14.19
2023-07-19T02:08:11.798Z,14.25
2023-07-19T02:10:59.088Z,14.22
2023-07-19T02:13:47.244Z,14.14
2023-07-19T02:16:34.047Z,14.04
2023-07-19T02:19:20.783Z,14.05
2023-07-19T02:22:07.855Z,14.02
2023-07-19T02:24:55.849Z,14.04
2023-07-19T02:27:42.891Z,14.10
2023-07-19T02:30:30.937Z,14.15
2023-07-19T02:33:17.970Z,14.17
2023-07-19T02:36:04.635Z,14.21
2023-07-19T02:38:51.298Z,14.24
2023-07-19T02:44:24.875Z,14.23
2023-07-19T02:47:14.027Z,14.24
2023-07-19T02:50:00.877Z,14.29
2023-07-19T02:52:47.642Z,14.42
2023-07-19T02:55:34.540Z,14.41
2023-07-19T02:58:21.315Z,14.41
2023-07-19T03:01:08.165Z,14.40
2023-07-19T03:03:56.416Z,14.46
2023-07-19T03:06:43.184Z,14.50
2023-07-19T03:09:30.008Z,14.59
2023-07-19T03:12:16.884Z,14.65
2023-07-19T03:15:04.700Z,14.78
2023-07-19T03:17:51.549Z,14.66
2023-07-19T03:20:39.638Z,14.60
2023-07-19T03:23:27.215Z,14.55
2023-07-19T03:26:14.056Z,14.55
2023-07-19T03:29:00.823Z,14.58
2023-07-19T03:31:47.574Z,14.48
2023-07-19T03:34:35.416Z,14.46
2023-07-19T03:37:23.612Z,14.42
2023-07-19T03:40:11.655Z,14.05
2023-07-19T03:42:58.802Z,14.49
2023-07-19T03:45:46.255Z,14.69
2023-07-19T03:48:34.155Z,14.71
2023-07-19T03:51:21.863Z,14.71
2023-07-19T03:54:12.593Z,14.65
2023-07-19T03:57:00.329Z,14.65
2023-07-19T03:59:47.740Z,14.74
2023-07-19T04:02:34.507Z,14.80
2023-07-19T04:05:21.653Z,14.86
2023-07-19T04:08:08.260Z,14.97
2023-07-19T04:10:56.400Z,15.11
2023-07-19T04:13:44.512Z,15.34
2023-07-19T04:16:31.452Z,15.44
2023-07-19T04:19:18.114Z,15.30
2023-07-19T04:22:05.311Z,15.37
2023-07-19T04:24:55.958Z,15.32
2023-07-19T04:27:44.265Z,15.33
2023-07-19T04:30:31.982Z,15.44
2023-07-19T04:33:19.215Z,15.65
2023-07-19T04:36:14.784Z,15.82
2023-07-19T04:39:02.902Z,15.90
2023-07-19T04:41:49.676Z,16.02
2023-07-19T04:44:40.485Z,16.04
2023-07-19T04:47:27.123Z,16.12
2023-07-19T04:50:13.703Z,16.25
2023-07-19T04:53:00.587Z,16.34
2023-07-19T04:55:47.419Z,16.36
2023-07-19T04:58:34.269Z,16.39
2023-07-19T05:01:26.540Z,16.52
2023-07-19T05:04:13.784Z,16.66
2023-07-19T05:07:00.457Z,16.73
2023-07-19T05:09:50.218Z,16.74
2023-07-19T05:12:36.841Z,16.77
2023-07-19T05:15:24.213Z,16.94
2023-07-19T05:18:12.129Z,17.09
2023-07-19T05:21:00.134Z,17.08
2023-07-19T05:23:47.513Z,17.41
2023-07-19T05:26:35.508Z,17.64
2023-07-19T05:29:22.269Z,18.01
2023-07-19T05:32:09.946Z,18.22
2023-07-19T05:34:58.428Z,18.16
2023-07-19T05:37:45.226Z,18.18
2023-07-19T05:40:32.962Z,18.35
2023-07-19T05:43:19.704Z,18.32
2023-07-19T05:46:07.025Z,18.35
2023-07-19T05:48:54.109Z,18.38
2023-07-19T05:51:42.210Z,18.74
2023-07-19T05:54:29.123Z,18.70
2023-07-19T05:57:15.772Z,18.73
2023-07-19T06:00:18.929Z,18.70
2023-07-19T06:03:07.227Z,18.70
2023-07-19T06:05:53.909Z,19.01
2023-07-19T06:08:42.507Z,18.98
2023-07-19T06:11:29.223Z,18.85
2023-07-19T06:14:15.891Z,18.76
2023-07-19T06:17:03.011Z,18.72
2023-07-19T06:19:49.488Z,18.66
2023-07-19T06:22:36.436Z,18.84
2023-07-19T06:25:24.808Z,18.96
2023-07-19T06:28:11.609Z,19.10
2023-07-19T06:31:01.052Z,19.21
2023-07-19T06:33:47.900Z,19.38
2023-07-19T06:36:34.822Z,19.44
2023-07-19T06:39:21.743Z,19.62
2023-07-19T06:42:09.999Z,19.44
2023-07-19T06:44:57.710Z,19.82
2023-07-19T06:47:55.393Z,20.16
2023-07-19T06:50:46.066Z,20.47
2023-07-19T06:53:34.276Z,20.47
2023-07-19T06:56:22.247Z,20.88
2023-07-19T06:59:10.278Z,20.80
2023-07-19T07:01:57.074Z,21.43
2023-07-19T07:04:43.941Z,21.78
2023-07-19T07:07:30.811Z,22.05
2023-07-19T07:10:17.657Z,22.20
2023-07-19T07:13:04.561Z,22.14
2023-07-19T07:15:54.063Z,22.10
2023-07-19T07:18:47.126Z,21.98
2023-07-19T07:21:37.568Z,21.89
2023-07-19T07:24:24.972Z,22.03
2023-07-19T07:27:18.130Z,22.31
2023-07-19T07:30:13.219Z,22.50
2023-07-19T07:33:06.737Z,22.66
2023-07-19T07:35:53.995Z,22.91
2023-07-19T07:38:40.814Z,23.06
2023-07-19T07:41:27.739Z,23.21
2023-07-19T07:44:14.902Z,23.19
2023-07-19T07:47:01.465Z,23.20
2023-07-19T07:49:49.800Z,23.29
2023-07-19T07:52:36.617Z,23.32
2023-07-19T07:55:23.985Z,23.44
2023-07-19T07:58:11.783Z,23.46
2023-07-19T08:01:00.120Z,23.57
2023-07-19T08:03:47.223Z,23.53
2023-07-19T08:06:35.505Z,23.53
2023-07-19T08:09:23.488Z,23.44
2023-07-19T08:12:10.820Z,23.38
2023-07-19T08:14:57.381Z,23.18
2023-07-19T08:17:44.177Z,23.22
2023-07-19T08:20:31.269Z,23.24
2023-07-19T08:23:19.656Z,23.32
2023-07-19T08:26:06.615Z,23.30
2023-07-19T08:28:53.364Z,23.47
2023-07-19T08:31:40.280Z,23.61
2023-07-19T08:34:26.971Z,23.60
2023-07-19T08:37:13.731Z,23.45
2023-07-19T08:40:02.032Z,23.54
2023-07-19T08:42:52.020Z,23.47
2023-07-19T08:45:39.163Z,23.48
2023-07-19T08:48:26.227Z,23.47
2023-07-19T08:51:15.088Z,23.60
2023-07-19T08:54:01.935Z,23.62
2023-07-19T08:56:49.928Z,23.90
2023-07-19T08:59:36.910Z,24.31
2023-07-19T09:02:23.723Z,24.65
2023-07-19T09:05:11.846Z,24.90
2023-07-19T09:08:01.849Z,25.27
2023-07-19T09:10:48.717Z,25.54
2023-07-19T09:13:40.145Z,25.86
2023-07-19T09:16:29.041Z,25.95
2023-07-19T09:19:15.660Z,26.02
2023-07-19T09:22:06.185Z,25.97
2023-07-19T09:24:56.728Z,25.85
2023-07-19T09:27:44.960Z,25.75
2023-07-19T09:30:32.997Z,25.71
2023-07-19T09:33:20.268Z,25.56
2023-07-19T09:36:07.395Z,25.47
2023-07-19T09:38:55.492Z,25.41
2023-07-19T09:41:42.629Z,25.37
2023-07-19T09:44:29.577Z,25.51
2023-07-19T09:47:28.122Z,25.67
2023-07-19T09:50:17.176Z,25.85
2023-07-19T09:53:04.909Z,25.62
2023-07-19T09:55:54.729Z,26.18
2023-07-19T09:58:42.672Z,26.32
2023-07-19T10:01:29.950Z,26.17
2023-07-19T10:04:25.379Z,26.18
2023-07-19T10:07:13.973Z,25.96
2023-07-19T10:10:02.880Z,25.85
2023-07-19T10:12:50.570Z,26.05
2023-07-19T10:15:37.877Z,26.43
2023-07-19T10:18:25.783Z,26.68
2023-07-19T10:21:14.071Z,26.54
2023-07-19T10:24:07.965Z,26.58
2023-07-19T10:26:54.972Z,26.56
2023-07-19T10:29:43.196Z,26.52
2023-07-19T10:32:29.891Z,26.36
2023-07-19T10:35:34.444Z,26.40
2023-07-19T10:38:24.160Z,26.54
2023-07-19T10:41:12.590Z,26.63
2023-07-19T10:44:04.036Z,26.76
2023-07-19T10:46:52.996Z,26.61
2023-07-19T10:49:39.811Z,26.80
2023-07-19T10:52:26.276Z,26.96
2023-07-19T10:55:38.326Z,26.94
2023-07-19T10:58:21.251Z,27.26
2023-07-19T11:01:08.992Z,27.54
2023-07-19T11:03:55.988Z,27.58
2023-07-19T11:06:56.514Z,27.37
2023-07-19T11:09:43.981Z,27.32
2023-07-19T11:12:32.947Z,27.42
2023-07-19T11:15:19.518Z,27.15
2023-07-19T11:18:06.556Z,26.91
2023-07-19T11:20:53.462Z,26.97
2023-07-19T11:23:42.940Z,26.95
2023-07-19T11:26:29.806Z,26.82
2023-07-19T11:29:20.089Z,26.99
2023-07-19T11:32:18.033Z,26.94
2023-07-19T11:35:04.997Z,26.77
2023-07-19T11:37:54.279Z,26.72
2023-07-19T11:40:45.354Z,26.64
2023-07-19T11:43:32.599Z,26.81
2023-07-19T11:46:22.047Z,26.38
2023-07-19T11:49:11.544Z,26.49
2023-07-19T11:51:58.209Z,26.74
2023-07-19T11:54:44.979Z,26.74
2023-07-19T11:57:31.976Z,26.77
2023-07-19T12:00:20.013Z,27.01
2023-07-19T12:03:08.442Z,26.98
2023-07-19T12:05:55.089Z,27.11
2023-07-19T12:08:42.544Z,26.99
2023-07-19T12:11:29.342Z,27.09
2023-07-19T12:14:18.193Z,27.06
2023-07-19T12:17:05.435Z,27.02
2023-07-19T12:19:53.695Z,26.66
2023-07-19T12:22:43.062Z,26.83
2023-07-19T12:25:30.022Z,26.65
2023-07-19T12:28:17.623Z,26.67
2023-07-19T12:31:04.178Z,26.52
2023-07-19T12:33:51.185Z,26.36
2023-07-19T12:36:39.212Z,26.21
2023-07-19T12:39:27.494Z,26.14
2023-07-19T12:42:15.873Z,26.07
2023-07-19T12:45:03.762Z,25.94
2023-07-19T12:47:51.728Z,25.88
2023-07-19T12:50:39.570Z,25.75
2023-07-19T12:53:28.821Z,25.84
2023-07-19T12:56:17.169Z,25.87
2023-07-19T12:59:05.452Z,25.94
2023-07-19T13:01:54.855Z,26.02
2023-07-19T13:04:42.628Z,26.09
2023-07-19T13:07:29.528Z,26.30
2023-07-19T13:10:17.953Z,26.37
2023-07-19T13:13:04.627Z,26.66
2023-07-19T13:15:51.641Z,26.93
2023-07-19T13:18:39.219Z,26.87
2023-07-19T13:21:26.530Z,26.88
2023-07-19T13:24:13.058Z,26.70
2023-07-19T13:27:01.872Z,26.78
2023-07-19T13:29:48.478Z,26.77
2023-07-19T13:32:35.279Z,26.81
2023-07-19T13:38:11.961Z,26.64
2023-07-19T13:40:58.856Z,26.85
2023-07-19T13:43:47.041Z,27.06
2023-07-19T13:46:36.581Z,27.26
2023-07-19T13:49:23.493Z,27.25
2023-07-19T13:52:10.133Z,27.20
2023-07-19T13:54:56.922Z,27.44
2023-07-19T13:57:43.690Z,27.26
2023-07-19T14:00:32.868Z,27.43
2023-07-19T14:03:19.957Z,27.56
2023-07-19T14:06:06.799Z,27.56
2023-07-19T14:08:53.642Z,27.53
2023-07-19T14:11:40.992Z,27.27
2023-07-19T14:14:27.747Z,27.23
2023-07-19T14:17:16.082Z,26.93
2023-07-19T14:20:03.440Z,26.85
2023-07-19T14:22:50.056Z,26.84
2023-07-19T14:25:36.925Z,26.77
2023-07-19T14:28:23.868Z,26.82
2023-07-19T14:31:12.326Z,26.96
2023-07-19T14:34:02.359Z,27.03
2023-07-19T14:36:48.928Z,26.92
2023-07-19T14:39:36.024Z,26.64
2023-07-19T14:42:23.960Z,26.50
2023-07-19T14:45:11.279Z,26.56
2023-07-19T14:47:58.008Z,26.47
2023-07-19T14:50:55.644Z,26.49
2023-07-19T14:53:44.955Z,26.45
2023-07-19T14:56:34.521Z,26.53
2023-07-19T14:59:28.469Z,26.66
2023-07-19T15:02:32.751Z,26.59
2023-07-19T15:05:21.494Z,26.59
2023-07-19T15:08:11.003Z,26.74
2023-07-19T15:10:58.436Z,26.86
2023-07-19T15:13:45.577Z,26.47
2023-07-19T15:16:32.872Z,26.53
2023-07-19T15:19:19.645Z,26.95
2023-07-19T15:22:07.230Z,27.08
2023-07-19T15:24:55.220Z,27.25
2023-07-19T15:27:41.913Z,27.23
2023-07-19T15:30:28.756Z,27.22
2023-07-19T15:33:16.144Z,26.89
2023-07-19T15:36:02.906Z,26.78
2023-07-19T15:38:49.853Z,26.75
2023-07-19T15:41:37.962Z,26.62
2023-07-19T15:44:34.045Z,26.39
2023-07-19T15:47:23.692Z,26.60
2023-07-19T15:50:15.109Z,26.74
2023-07-19T15:53:05.392Z,26.89
2023-07-19T15:55:54.884Z,26.83
2023-07-19T15:58:46.476Z,26.81
2023-07-19T16:01:34.332Z,26.52
2023-07-19T16:04:23.071Z,26.41
2023-07-19T16:07:14.246Z,25.95
2023-07-19T16:10:03.761Z,25.67
2023-07-19T16:12:55.288Z,25.67
2023-07-19T16:15:45.788Z,25.57
2023-07-19T16:18:35.556Z,25.56
2023-07-19T16:21:24.068Z,25.21
2023-07-19T16:24:12.930Z,25.27
2023-07-19T16:27:02.660Z,25.29
2023-07-19T16:29:51.752Z,25.20
2023-07-19T16:32:41.889Z,25.36
2023-07-19T16:35:31.244Z,25.51
2023-07-19T16:38:19.692Z,25.54
2023-07-19T16:41:08.950Z,25.35
2023-07-19T16:43:56.923Z,25.43
2023-07-19T16:46:46.093Z,25.47
2023-07-19T16:49:36.407Z,25.36
2023-07-19T16:52:25.049Z,24.86
2023-07-19T16:55:14.063Z,24.71
2023-07-19T16:58:04.490Z,24.73
2023-07-19T17:00:53.181Z,24.52
2023-07-19T17:03:42.815Z,24.54
2023-07-19T17:06:32.504Z,24.69
2023-07-19T17:09:20.958Z,24.54
2023-07-19T17:12:10.523Z,24.70
2023-07-19T17:14:59.004Z,24.49
2023-07-19T17:17:48.212Z,24.40
2023-07-19T17:20:36.308Z,24.10
2023-07-19T17:23:26.444Z,24.23
2023-07-19T17:26:13.940Z,24.02
2023-07-19T17:29:04.752Z,23.97
2023-07-19T17:31:53.031Z,23.97
2023-07-19T17:34:39.610Z,23.84
2023-07-19T17:37:26.322Z,23.89
2023-07-19T17:40:14.806Z,23.62
2023-07-19T17:43:06.631Z,23.63
2023-07-19T17:45:57.290Z,23.76
2023-07-19T17:48:45.977Z,23.94
2023-07-19T17:51:32.955Z,23.74
2023-07-19T17:54:19.759Z,23.45
2023-07-19T17:57:08.577Z,23.39
2023-07-19T17:59:55.171Z,23.52
2023-07-19T18:02:43.400Z,23.60
2023-07-19T18:05:30.039Z,23.60
2023-07-19T18:08:23.258Z,23.58
2023-07-19T18:11:11.811Z,23.24
2023-07-19T18:14:01.173Z,23.04
2023-07-19T18:16:48.128Z,22.98
2023-07-19T18:19:35.755Z,22.95
2023-07-19T18:22:22.305Z,22.78
2023-07-19T18:25:09.639Z,22.66
2023-07-19T18:27:56.736Z,22.37
2023-07-19T18:30:44.882Z,22.47
2023-07-19T18:33:37.708Z,22.55
2023-07-19T18:36:33.685Z,22.30
2023-07-19T18:39:30.403Z,22.15
2023-07-19T18:42:21.007Z,21.93
2023-07-19T18:48:22.802Z,21.68
2023-07-19T18:51:15.396Z,21.62
2023-07-19T18:54:04.887Z,21.68
2023-07-19T18:57:00.421Z,21.59
2023-07-19T19:00:06.624Z,21.38
2023-07-19T19:03:02.017Z,21.33
2023-07-19T19:06:25.693Z,21.42
2023-07-19T19:09:31.671Z,21.16
2023-07-19T19:12:30.635Z,20.93
2023-07-19T19:15:31.375Z,20.83
2023-07-19T19:18:29.654Z,20.80
2023-07-19T19:21:32.168Z,20.55
2023-07-19T19:24:24.376Z,20.38
2023-07-19T19:27:17.304Z,20.39
2023-07-19T19:30:10.875Z,20.15
2023-07-19T19:33:05.157Z,19.92
2023-07-19T19:35:53.420Z,19.88
2023-07-19T19:38:42.780Z,19.78
2023-07-19T19:41:32.326Z,19.72
2023-07-19T19:44:20.448Z,19.72
2023-07-19T19:47:09.358Z,19.48
2023-07-19T19:49:56.436Z,19.61
2023-07-19T19:52:49.319Z,19.61
2023-07-19T19:55:49.547Z,19.56
2023-07-19T19:58:36.577Z,19.59
2023-07-19T20:01:32.679Z,19.68
2023-07-19T20:04:21.079Z,19.76
2023-07-19T20:07:09.801Z,19.68
2023-07-19T20:10:17.023Z,19.64
2023-07-19T20:13:06.673Z,19.86
2023-07-19T20:15:58.012Z,19.76
2023-07-19T20:18:47.886Z,19.74
2023-07-19T20:21:37.007Z,19.72
2023-07-19T20:24:30.819Z,19.71
2023-07-19T20:27:28.574Z,19.69
2023-07-19T20:30:19.915Z,19.66
2023-07-19T20:33:08.626Z,19.68
2023-07-19T20:38:48.834Z,19.58
2023-07-19T20:41:36.341Z,19.52
2023-07-19T20:44:28.547Z,19.40
2023-07-19T20:47:18.647Z,19.26
2023-07-19T20:50:08.483Z,19.12
2023-07-19T20:52:54.944Z,19.10
2023-07-19T20:55:41.791Z,19.02
2023-07-19T20:58:28.659Z,18.93
2023-07-19T21:01:15.450Z,18.75
2023-07-19T21:04:04.056Z,18.78
2023-07-19T21:06:51.176Z,18.72
2023-07-19T21:09:37.765Z,18.82
2023-07-19T21:12:24.527Z,18.85
2023-07-19T21:15:12.743Z,18.71
2023-07-19T21:17:59.361Z,18.60
2023-07-19T21:20:47.574Z,18.64
2023-07-19T21:23:34.162Z,18.44
2023-07-19T21:26:21.242Z,18.25
2023-07-19T21:29:08.201Z,18.18
2023-07-19T21:31:55.111Z,18.11
2023-07-19T21:34:52.589Z,18.13
2023-07-19T21:37:41.430Z,18.20
2023-07-19T21:40:29.109Z,18.37
2023-07-19T21:43:16.062Z,18.22
2023-07-19T21:46:02.787Z,18.02
2023-07-19T21:48:49.554Z,17.97
2023-07-19T21:51:36.324Z,17.97
2023-07-19T21:54:24.455Z,17.96
2023-07-19T21:57:11.221Z,17.87
2023-07-19T21:59:59.597Z,17.97
2023-07-19T22:02:47.703Z,17.96
2023-07-19T22:05:36.961Z,17.82
2023-07-19T22:08:27.386Z,17.67
2023-07-19T22:11:15.561Z,17.68
2023-07-19T22:14:02.576Z,17.86
2023-07-19T22:16:50.076Z,17.73
2023-07-19T22:19:37.759Z,17.66
2023-07-19T22:22:24.208Z,17.61
2023-07-19T22:25:11.802Z,17.34
2023-07-19T22:27:59.603Z,17.36
2023-07-19T22:30:47.361Z,17.26
2023-07-19T22:33:34.248Z,17.21
2023-07-19T22:36:21.608Z,17.23
2023-07-19T22:39:08.804Z,17.27
2023-07-19T22:41:55.556Z,17.38
2023-07-19T22:44:43.730Z,17.20
2023-07-19T22:47:30.657Z,17.15
2023-07-19T22:50:18.833Z,17.17
2023-07-19T22:53:05.663Z,17.14
2023-07-19T22:55:52.637Z,17.14
2023-07-19T22:58:39.455Z,17.06
2023-07-19T23:01:27.930Z,16.96
2023-07-19T23:04:14.442Z,16.90
2023-07-19T23:07:01.919Z,16.74
2023-07-19T23:09:48.315Z,16.66
2023-07-19T23:12:35.389Z,16.63
2023-07-19T23:15:22.276Z,16.58
2023-07-19T23:18:11.203Z,16.52
2023-07-19T23:20:58.033Z,16.44
2023-07-19T23:23:47.250Z,16.46
2023-07-19T23:26:34.264Z,16.52
2023-07-19T23:29:26.388Z,16.53
2023-07-19T23:32:13.213Z,16.65
2023-07-19T23:35:03.930Z,16.63
2023-07-19T23:37:51.437Z,16.62
2023-07-19T23:40:37.938Z,16.53
2023-07-19T23:43:24.739Z,16.50
2023-07-19T23:46:16.398Z,16.44
2023-07-19T23:49:03.428Z,16.39
2023-07-19T23:51:51.540Z,16.45
2023-07-19T23:54:38.577Z,16.55
2023-07-19T23:57:25.787Z,16.54
